Terminal Aerodrome Forecast
Issued by NWS

Home | Current Version | Previous Version | Text Only | Print | Product List | Glossary On
Versions: 1 2 3 4 5 6 7 8 9 10 11 12 13 14 15 16 17 18 19 20 21 22 23 24 25 26 27 28 29 30 31
000
FTUS41 KBUF 152138 AAB
TAFIAG
TAF AMD
KIAG 152138Z 1522/1618 21012KT 1SM -SN OVC015
     FM152215 24012G20KT 1/4SM +SN VCTS OVC008CB
     FM152315 26012G20KT 2SM -SN OVC015
     FM160100 26011G18KT P6SM SCT070
     FM161100 26011G17KT P6SM BKN090
     FM161700 32007KT P6SM OVC050=

USA.gov is the U.S. government's official web portal to all federal, state and local government web resources and services.